Terminal Aerodrome Forecast
Issued by NWS Cheyenne, WY

Home | Current Version | Previous Version | Text Only | Print | Product List | Glossary On
Versions: 1 2 3 4 5 6 7 8 9 10 11 12 13 14 15
000
FTUS45 KCYS 220715 AAA
TAFCYS
TAF AMD
KCYS 220715Z 2207/2306 33013KT P6SM FEW120
      TEMPO 2207/2210 36015G25KT
     FM221800 15010G20KT P6SM SCT100 BKN200
     FM222200 02009KT P6SM VCSH BKN050 OVC100=

USA.gov is the U.S. government's official web portal to all federal, state and local government web resources and services.